Terminal Aerodrome Forecast
Issued by NWS Louisville, KY

Home | Current Version | Previous Version | Text Only | Print | Product List | Glossary On
Versions: 1 2 3 4 5 6 7 8 9 10 11 12 13 14 15
000
FTUS43 KLMK 051122
TAFLEX
TAF
KLEX 051122Z 0512/0612 VRB03KT P6SM SCT250
     FM051500 10007KT P6SM SCT050
     FM060000 VRB03KT P6SM FEW250
     FM061000 VRB03KT 5SM BR FEW250=

USA.gov is the U.S. government's official web portal to all federal, state and local government web resources and services.